sensor_id;sensor_type;location;lat;lon;timestamp;P1;durP1;ratioP1;P2;durP2;ratioP2
49514;SDS011;35415;47.870;16.058;2023-05-20T00:01:10;5.35;;;4.28;;
49514;SDS011;35415;47.870;16.058;2023-05-20T00:03:45;5.67;;;3.40;;
49514;SDS011;35415;47.870;16.058;2023-05-20T00:06:15;4.70;;;3.83;;
49514;SDS011;35415;47.870;16.058;2023-05-20T00:08:43;4.90;;;3.65;;
49514;SDS011;35415;47.870;16.058;2023-05-20T00:11:12;4.55;;;4.05;;
49514;SDS011;35415;47.870;16.058;2023-05-20T00:13:42;7.83;;;4.87;;
49514;SDS011;35415;47.870;16.058;2023-05-20T00:16:09;6.57;;;4.50;;
49514;SDS011;35415;47.870;16.058;2023-05-20T00:18:40;5.38;;;4.20;;
49514;SDS011;35415;47.870;16.058;2023-05-20T00:21:08;5.07;;;4.20;;
49514;SDS011;35415;47.870;16.058;2023-05-20T00:23:40;5.40;;;3.97;;
49514;SDS011;35415;47.870;16.058;2023-05-20T00:26:08;5.07;;;3.97;;
49514;SDS011;35415;47.870;16.058;2023-05-20T00:28:37;4.22;;;3.47;;
49514;SDS011;35415;47.870;16.058;2023-05-20T00:31:05;6.80;;;4.05;;
49514;SDS011;35415;47.870;16.058;2023-05-20T00:33:32;6.75;;;3.85;;
49514;SDS011;35415;47.870;16.058;2023-05-20T00:36:01;5.57;;;3.53;;
49514;SDS011;35415;47.870;16.058;2023-05-20T00:38:28;4.45;;;4.05;;
49514;SDS011;35415;47.870;16.058;2023-05-20T00:40:55;5.68;;;3.97;;
49514;SDS011;35415;47.870;16.058;2023-05-20T00:43:23;5.47;;;3.88;;
49514;SDS011;35415;47.870;16.058;2023-05-20T00:45:53;10.60;;;4.18;;
49514;SDS011;35415;47.870;16.058;2023-05-20T00:48:21;5.40;;;3.95;;
49514;SDS011;35415;47.870;16.058;2023-05-20T00:50:51;5.70;;;3.92;;
49514;SDS011;35415;47.870;16.058;2023-05-20T00:53:18;4.97;;;3.88;;
49514;SDS011;35415;47.870;16.058;2023-05-20T00:55:46;4.85;;;4.03;;
49514;SDS011;35415;47.870;16.058;2023-05-20T00:58:14;5.63;;;4.10;;
49514;SDS011;35415;47.870;16.058;2023-05-20T01:00:42;6.32;;;3.90;;
49514;SDS011;35415;47.870;16.058;2023-05-20T01:03:12;4.78;;;4.30;;
49514;SDS011;35415;47.870;16.058;2023-05-20T01:05:40;5.43;;;4.07;;
49514;SDS011;35415;47.870;16.058;2023-05-20T01:08:07;5.60;;;4.25;;
49514;SDS011;35415;47.870;16.058;2023-05-20T01:10:35;6.60;;;3.85;;
49514;SDS011;35415;47.870;16.058;2023-05-20T01:13:07;7.70;;;4.28;;
49514;SDS011;35415;47.870;16.058;2023-05-20T01:15:39;5.43;;;4.90;;
49514;SDS011;35415;47.870;16.058;2023-05-20T01:18:08;4.55;;;3.90;;
49514;SDS011;35415;47.870;16.058;2023-05-20T01:20:42;7.75;;;4.70;;
49514;SDS011;35415;47.870;16.058;2023-05-20T01:23:13;7.85;;;4.57;;
49514;SDS011;35415;47.870;16.058;2023-05-20T01:25:41;5.72;;;4.60;;
49514;SDS011;35415;47.870;16.058;2023-05-20T01:28:08;5.75;;;4.07;;
49514;SDS011;35415;47.870;16.058;2023-05-20T01:30:43;5.63;;;4.25;;
49514;SDS011;35415;47.870;16.058;2023-05-20T01:33:16;4.93;;;3.80;;
49514;SDS011;35415;47.870;16.058;2023-05-20T01:35:47;7.25;;;4.22;;
49514;SDS011;35415;47.870;16.058;2023-05-20T01:38:16;6.60;;;4.00;;
49514;SDS011;35415;47.870;16.058;2023-05-20T01:40:46;6.00;;;4.22;;
49514;SDS011;35415;47.870;16.058;2023-05-20T01:43:15;5.43;;;4.03;;
49514;SDS011;35415;47.870;16.058;2023-05-20T01:45:43;6.05;;;4.13;;
49514;SDS011;35415;47.870;16.058;2023-05-20T01:48:11;4.75;;;4.00;;
49514;SDS011;35415;47.870;16.058;2023-05-20T01:50:39;5.07;;;4.00;;
49514;SDS011;35415;47.870;16.058;2023-05-20T01:53:06;7.05;;;3.85;;
49514;SDS011;35415;47.870;16.058;2023-05-20T01:55:35;5.63;;;4.03;;
49514;SDS011;35415;47.870;16.058;2023-05-20T01:58:03;10.02;;;5.35;;
49514;SDS011;35415;47.870;16.058;2023-05-20T02:00:30;7.50;;;4.82;;
49514;SDS011;35415;47.870;16.058;2023-05-20T02:02:58;6.22;;;4.72;;
49514;SDS011;35415;47.870;16.058;2023-05-20T02:05:27;6.03;;;4.43;;
49514;SDS011;35415;47.870;16.058;2023-05-20T02:07:55;5.00;;;4.50;;
49514;SDS011;35415;47.870;16.058;2023-05-20T02:10:23;5.25;;;4.43;;
49514;SDS011;35415;47.870;16.058;2023-05-20T02:12:52;6.05;;;5.20;;
49514;SDS011;35415;47.870;16.058;2023-05-20T02:15:19;7.45;;;4.85;;
49514;SDS011;35415;47.870;16.058;2023-05-20T02:17:47;6.90;;;4.78;;
49514;SDS011;35415;47.870;16.058;2023-05-20T02:20:15;7.28;;;4.75;;
49514;SDS011;35415;47.870;16.058;2023-05-20T02:22:43;5.80;;;5.22;;
49514;SDS011;35415;47.870;16.058;2023-05-20T02:25:10;6.13;;;4.70;;
49514;SDS011;35415;47.870;16.058;2023-05-20T02:27:38;6.70;;;4.38;;
49514;SDS011;35415;47.870;16.058;2023-05-20T02:30:21;6.72;;;4.65;;
49514;SDS011;35415;47.870;16.058;2023-05-20T02:32:49;5.68;;;4.57;;
49514;SDS011;35415;47.870;16.058;2023-05-20T02:35:16;8.48;;;4.57;;
49514;SDS011;35415;47.870;16.058;2023-05-20T02:37:44;6.95;;;5.30;;
49514;SDS011;35415;47.870;16.058;2023-05-20T02:40:12;7.75;;;5.28;;
49514;SDS011;35415;47.870;16.058;2023-05-20T02:42:40;7.47;;;5.55;;
49514;SDS011;35415;47.870;16.058;2023-05-20T02:45:08;6.93;;;5.80;;
49514;SDS011;35415;47.870;16.058;2023-05-20T02:47:37;6.10;;;5.13;;
49514;SDS011;35415;47.870;16.058;2023-05-20T02:50:06;6.70;;;5.30;;
49514;SDS011;35415;47.870;16.058;2023-05-20T02:52:34;6.07;;;4.38;;
49514;SDS011;35415;47.870;16.058;2023-05-20T02:55:02;6.10;;;4.57;;
49514;SDS011;35415;47.870;16.058;2023-05-20T02:57:30;5.45;;;4.38;;
49514;SDS011;35415;47.870;16.058;2023-05-20T02:59:59;7.50;;;5.13;;
49514;SDS011;35415;47.870;16.058;2023-05-20T03:02:26;6.65;;;4.47;;
49514;SDS011;35415;47.870;16.058;2023-05-20T03:04:56;5.15;;;4.60;;
49514;SDS011;35415;47.870;16.058;2023-05-20T03:07:23;6.72;;;5.05;;
49514;SDS011;35415;47.870;16.058;2023-05-20T03:09:51;6.65;;;4.68;;
49514;SDS011;35415;47.870;16.058;2023-05-20T03:12:19;8.88;;;4.95;;
49514;SDS011;35415;47.870;16.058;2023-05-20T03:14:46;7.45;;;5.38;;
49514;SDS011;35415;47.870;16.058;2023-05-20T03:17:14;11.43;;;5.85;;
49514;SDS011;35415;47.870;16.058;2023-05-20T03:19:42;7.60;;;5.38;;
49514;SDS011;35415;47.870;16.058;2023-05-20T03:22:12;7.03;;;5.18;;
49514;SDS011;35415;47.870;16.058;2023-05-20T03:24:39;6.50;;;5.03;;
49514;SDS011;35415;47.870;16.058;2023-05-20T03:27:07;7.32;;;5.18;;
49514;SDS011;35415;47.870;16.058;2023-05-20T03:29:34;6.45;;;4.95;;
49514;SDS011;35415;47.870;16.058;2023-05-20T03:32:02;6.00;;;4.90;;
49514;SDS011;35415;47.870;16.058;2023-05-20T03:34:30;6.38;;;4.95;;
49514;SDS011;35415;47.870;16.058;2023-05-20T03:36:58;8.40;;;5.00;;
49514;SDS011;35415;47.870;16.058;2023-05-20T03:39:28;7.35;;;5.93;;
49514;SDS011;35415;47.870;16.058;2023-05-20T03:41:55;5.90;;;4.85;;
49514;SDS011;35415;47.870;16.058;2023-05-20T03:44:22;8.88;;;5.78;;
49514;SDS011;35415;47.870;16.058;2023-05-20T03:46:50;7.03;;;5.63;;
49514;SDS011;35415;47.870;16.058;2023-05-20T03:49:17;10.48;;;5.68;;
49514;SDS011;35415;47.870;16.058;2023-05-20T03:51:45;6.85;;;5.60;;
49514;SDS011;35415;47.870;16.058;2023-05-20T03:54:12;10.48;;;6.75;;
49514;SDS011;35415;47.870;16.058;2023-05-20T03:56:43;7.30;;;6.03;;
49514;SDS011;35415;47.870;16.058;2023-05-20T03:59:15;8.48;;;6.30;;
49514;SDS011;35415;47.870;16.058;2023-05-20T04:01:42;8.27;;;6.10;;
49514;SDS011;35415;47.870;16.058;2023-05-20T04:04:10;9.30;;;6.55;;
49514;SDS011;35415;47.870;16.058;2023-05-20T04:06:37;7.15;;;5.18;;
49514;SDS011;35415;47.870;16.058;2023-05-20T04:09:05;8.13;;;5.57;;
49514;SDS011;35415;47.870;16.058;2023-05-20T04:11:35;9.57;;;6.15;;
49514;SDS011;35415;47.870;16.058;2023-05-20T04:14:04;10.50;;;6.18;;
49514;SDS011;35415;47.870;16.058;2023-05-20T04:16:31;9.77;;;6.22;;
49514;SDS011;35415;47.870;16.058;2023-05-20T04:19:01;9.18;;;6.32;;
49514;SDS011;35415;47.870;16.058;2023-05-20T04:21:29;11.38;;;6.63;;
49514;SDS011;35415;47.870;16.058;2023-05-20T04:23:57;10.15;;;6.63;;
49514;SDS011;35415;47.870;16.058;2023-05-20T04:26:25;9.63;;;6.15;;
49514;SDS011;35415;47.870;16.058;2023-05-20T04:28:53;11.95;;;6.63;;
49514;SDS011;35415;47.870;16.058;2023-05-20T04:31:24;11.20;;;7.32;;
49514;SDS011;35415;47.870;16.058;2023-05-20T04:33:52;11.52;;;7.80;;
49514;SDS011;35415;47.870;16.058;2023-05-20T04:36:20;12.02;;;7.78;;
49514;SDS011;35415;47.870;16.058;2023-05-20T04:38:52;12.32;;;7.22;;
49514;SDS011;35415;47.870;16.058;2023-05-20T04:41:20;13.88;;;7.75;;
49514;SDS011;35415;47.870;16.058;2023-05-20T04:43:48;12.52;;;7.78;;
49514;SDS011;35415;47.870;16.058;2023-05-20T04:46:16;14.63;;;7.75;;
49514;SDS011;35415;47.870;16.058;2023-05-20T04:48:46;14.82;;;8.15;;
49514;SDS011;35415;47.870;16.058;2023-05-20T04:51:16;13.77;;;8.73;;
49514;SDS011;35415;47.870;16.058;2023-05-20T04:53:43;18.90;;;8.73;;
49514;SDS011;35415;47.870;16.058;2023-05-20T04:56:11;16.73;;;9.73;;
49514;SDS011;35415;47.870;16.058;2023-05-20T05:01:10;18.02;;;10.88;;
49514;SDS011;35415;47.870;16.058;2023-05-20T05:03:41;21.63;;;11.38;;
49514;SDS011;35415;47.870;16.058;2023-05-20T05:06:10;25.20;;;13.43;;
49514;SDS011;35415;47.870;16.058;2023-05-20T05:08:41;30.08;;;13.68;;
49514;SDS011;35415;47.870;16.058;2023-05-20T05:11:08;30.40;;;14.65;;
49514;SDS011;35415;47.870;16.058;2023-05-20T05:13:35;28.20;;;14.82;;
49514;SDS011;35415;47.870;16.058;2023-05-20T05:16:04;27.17;;;14.52;;
49514;SDS011;35415;47.870;16.058;2023-05-20T05:18:32;27.60;;;14.50;;
49514;SDS011;35415;47.870;16.058;2023-05-20T05:21:00;29.90;;;15.32;;
49514;SDS011;35415;47.870;16.058;2023-05-20T05:23:30;31.45;;;15.10;;
49514;SDS011;35415;47.870;16.058;2023-05-20T05:25:59;29.50;;;14.95;;
49514;SDS011;35415;47.870;16.058;2023-05-20T05:28:26;27.73;;;14.60;;
49514;SDS011;35415;47.870;16.058;2023-05-20T05:30:54;28.92;;;15.40;;
49514;SDS011;35415;47.870;16.058;2023-05-20T05:33:22;27.20;;;14.27;;
49514;SDS011;35415;47.870;16.058;2023-05-20T05:35:49;31.50;;;15.32;;
49514;SDS011;35415;47.870;16.058;2023-05-20T05:38:17;25.45;;;14.10;;
49514;SDS011;35415;47.870;16.058;2023-05-20T05:40:46;25.80;;;14.05;;
49514;SDS011;35415;47.870;16.058;2023-05-20T05:43:14;26.95;;;13.98;;
49514;SDS011;35415;47.870;16.058;2023-05-20T05:45:41;28.40;;;14.65;;
49514;SDS011;35415;47.870;16.058;2023-05-20T05:48:09;25.95;;;14.20;;
49514;SDS011;35415;47.870;16.058;2023-05-20T05:50:36;28.60;;;15.10;;
49514;SDS011;35415;47.870;16.058;2023-05-20T05:53:04;26.60;;;15.20;;
49514;SDS011;35415;47.870;16.058;2023-05-20T05:55:31;25.33;;;15.25;;
49514;SDS011;35415;47.870;16.058;2023-05-20T05:58:02;27.50;;;16.90;;
49514;SDS011;35415;47.870;16.058;2023-05-20T06:00:29;29.75;;;16.00;;
49514;SDS011;35415;47.870;16.058;2023-05-20T06:02:57;26.42;;;15.45;;
49514;SDS011;35415;47.870;16.058;2023-05-20T06:05:25;28.73;;;15.65;;
49514;SDS011;35415;47.870;16.058;2023-05-20T06:07:52;27.55;;;16.30;;
49514;SDS011;35415;47.870;16.058;2023-05-20T06:10:21;27.50;;;15.80;;
49514;SDS011;35415;47.870;16.058;2023-05-20T06:12:49;24.50;;;15.75;;
49514;SDS011;35415;47.870;16.058;2023-05-20T06:15:18;25.17;;;14.70;;
49514;SDS011;35415;47.870;16.058;2023-05-20T06:17:45;26.02;;;14.48;;
49514;SDS011;35415;47.870;16.058;2023-05-20T06:20:13;23.70;;;16.02;;
49514;SDS011;35415;47.870;16.058;2023-05-20T06:22:41;25.23;;;14.65;;
49514;SDS011;35415;47.870;16.058;2023-05-20T06:25:11;25.48;;;14.93;;
49514;SDS011;35415;47.870;16.058;2023-05-20T06:27:39;27.92;;;17.38;;
49514;SDS011;35415;47.870;16.058;2023-05-20T06:30:07;29.77;;;18.52;;
49514;SDS011;35415;47.870;16.058;2023-05-20T06:32:37;27.80;;;17.23;;
49514;SDS011;35415;47.870;16.058;2023-05-20T06:35:04;29.55;;;18.42;;
49514;SDS011;35415;47.870;16.058;2023-05-20T06:37:32;29.83;;;17.98;;
49514;SDS011;35415;47.870;16.058;2023-05-20T06:40:04;32.10;;;19.55;;
49514;SDS011;35415;47.870;16.058;2023-05-20T06:42:33;31.90;;;18.15;;
49514;SDS011;35415;47.870;16.058;2023-05-20T06:45:03;26.60;;;16.85;;
49514;SDS011;35415;47.870;16.058;2023-05-20T06:47:31;29.73;;;18.52;;
49514;SDS011;35415;47.870;16.058;2023-05-20T06:50:01;30.73;;;19.17;;
49514;SDS011;35415;47.870;16.058;2023-05-20T06:52:28;38.45;;;20.60;;
49514;SDS011;35415;47.870;16.058;2023-05-20T06:54:56;28.80;;;17.90;;
49514;SDS011;35415;47.870;16.058;2023-05-20T06:57:24;29.25;;;18.15;;
49514;SDS011;35415;47.870;16.058;2023-05-20T07:02:50;29.33;;;16.38;;
49514;SDS011;35415;47.870;16.058;2023-05-20T07:05:20;26.70;;;16.20;;
49514;SDS011;35415;47.870;16.058;2023-05-20T07:07:48;22.83;;;15.38;;
49514;SDS011;35415;47.870;16.058;2023-05-20T07:10:16;23.02;;;15.00;;
49514;SDS011;35415;47.870;16.058;2023-05-20T07:12:44;20.98;;;12.98;;
49514;SDS011;35415;47.870;16.058;2023-05-20T07:15:12;14.85;;;11.75;;
49514;SDS011;35415;47.870;16.058;2023-05-20T07:17:39;14.73;;;11.23;;
49514;SDS011;35415;47.870;16.058;2023-05-20T07:20:07;17.80;;;12.43;;
49514;SDS011;35415;47.870;16.058;2023-05-20T07:22:36;18.10;;;13.30;;
49514;SDS011;35415;47.870;16.058;2023-05-20T07:31:04;14.48;;;10.00;;
49514;SDS011;35415;47.870;16.058;2023-05-20T07:33:32;14.60;;;11.40;;
49514;SDS011;35415;47.870;16.058;2023-05-20T07:35:59;12.65;;;9.18;;
49514;SDS011;35415;47.870;16.058;2023-05-20T07:38:28;11.85;;;9.50;;
49514;SDS011;35415;47.870;16.058;2023-05-20T07:40:56;10.48;;;7.97;;
49514;SDS011;35415;47.870;16.058;2023-05-20T07:43:27;13.07;;;8.32;;
49514;SDS011;35415;47.870;16.058;2023-05-20T07:45:54;8.85;;;7.18;;
49514;SDS011;35415;47.870;16.058;2023-05-20T07:48:22;9.48;;;7.20;;
49514;SDS011;35415;47.870;16.058;2023-05-20T07:50:49;10.77;;;7.43;;
49514;SDS011;35415;47.870;16.058;2023-05-20T07:53:23;8.80;;;7.35;;
49514;SDS011;35415;47.870;16.058;2023-05-20T07:55:52;10.60;;;7.43;;
49514;SDS011;35415;47.870;16.058;2023-05-20T07:58:22;8.98;;;6.72;;
49514;SDS011;35415;47.870;16.058;2023-05-20T08:06:06;11.35;;;8.82;;
49514;SDS011;35415;47.870;16.058;2023-05-20T08:08:33;12.77;;;8.48;;
49514;SDS011;35415;47.870;16.058;2023-05-20T08:11:03;17.05;;;9.60;;
49514;SDS011;35415;47.870;16.058;2023-05-20T08:13:30;13.48;;;9.50;;
49514;SDS011;35415;47.870;16.058;2023-05-20T08:15:58;13.50;;;9.77;;
49514;SDS011;35415;47.870;16.058;2023-05-20T08:21:16;12.40;;;9.30;;
49514;SDS011;35415;47.870;16.058;2023-05-20T08:23:59;13.88;;;9.20;;
49514;SDS011;35415;47.870;16.058;2023-05-20T08:26:27;14.18;;;9.05;;
49514;SDS011;35415;47.870;16.058;2023-05-20T08:31:47;12.48;;;9.38;;
49514;SDS011;35415;47.870;16.058;2023-05-20T08:40:19;18.40;;;10.52;;
49514;SDS011;35415;47.870;16.058;2023-05-20T08:42:50;10.10;;;8.93;;
49514;SDS011;35415;47.870;16.058;2023-05-20T08:45:19;12.90;;;8.93;;
49514;SDS011;35415;47.870;16.058;2023-05-20T08:53:06;13.90;;;9.10;;
49514;SDS011;35415;47.870;16.058;2023-05-20T08:55:36;14.45;;;9.02;;
49514;SDS011;35415;47.870;16.058;2023-05-20T09:16:14;8.38;;;7.43;;
49514;SDS011;35415;47.870;16.058;2023-05-20T09:19:14;12.50;;;9.23;;
49514;SDS011;35415;47.870;16.058;2023-05-20T09:21:52;12.73;;;9.63;;
49514;SDS011;35415;47.870;16.058;2023-05-20T09:33:31;11.13;;;7.43;;
49514;SDS011;35415;47.870;16.058;2023-05-20T11:37:54;9.45;;;8.07;;
49514;SDS011;35415;47.870;16.058;2023-05-20T12:04:49;7.53;;;6.38;;
49514;SDS011;35415;47.870;16.058;2023-05-20T12:22:35;9.07;;;5.80;;
49514;SDS011;35415;47.870;16.058;2023-05-20T12:40:28;6.88;;;6.18;;
49514;SDS011;35415;47.870;16.058;2023-05-20T13:59:07;6.72;;;5.00;;
49514;SDS011;35415;47.870;16.058;2023-05-20T14:04:38;5.72;;;4.78;;
49514;SDS011;35415;47.870;16.058;2023-05-20T14:07:10;9.52;;;5.60;;
49514;SDS011;35415;47.870;16.058;2023-05-20T14:09:38;11.10;;;7.07;;
49514;SDS011;35415;47.870;16.058;2023-05-20T14:12:05;8.38;;;6.80;;
49514;SDS011;35415;47.870;16.058;2023-05-20T14:23:43;5.93;;;4.97;;
49514;SDS011;35415;47.870;16.058;2023-05-20T14:26:14;5.75;;;5.13;;
49514;SDS011;35415;47.870;16.058;2023-05-20T14:28:41;5.63;;;4.63;;
49514;SDS011;35415;47.870;16.058;2023-05-20T14:31:09;6.28;;;4.80;;
49514;SDS011;35415;47.870;16.058;2023-05-20T14:36:52;7.38;;;5.18;;
49514;SDS011;35415;47.870;16.058;2023-05-20T14:42:12;6.13;;;4.60;;
49514;SDS011;35415;47.870;16.058;2023-05-20T14:44:41;5.47;;;4.97;;
49514;SDS011;35415;47.870;16.058;2023-05-20T14:47:24;8.70;;;5.07;;
49514;SDS011;35415;47.870;16.058;2023-05-20T14:49:51;6.88;;;4.93;;
49514;SDS011;35415;47.870;16.058;2023-05-20T14:52:18;5.13;;;4.63;;
49514;SDS011;35415;47.870;16.058;2023-05-20T14:54:48;5.82;;;4.20;;
49514;SDS011;35415;47.870;16.058;2023-05-20T14:57:16;6.35;;;4.57;;
49514;SDS011;35415;47.870;16.058;2023-05-20T15:03:20;5.82;;;4.68;;
49514;SDS011;35415;47.870;16.058;2023-05-20T15:05:48;5.78;;;4.63;;
49514;SDS011;35415;47.870;16.058;2023-05-20T15:08:16;8.95;;;5.40;;
49514;SDS011;35415;47.870;16.058;2023-05-20T15:28:58;7.10;;;4.78;;
49514;SDS011;35415;47.870;16.058;2023-05-20T15:31:26;5.43;;;4.78;;
49514;SDS011;35415;47.870;16.058;2023-05-20T15:33:53;5.70;;;4.68;;
49514;SDS011;35415;47.870;16.058;2023-05-20T15:36:22;5.13;;;4.43;;
49514;SDS011;35415;47.870;16.058;2023-05-20T15:38:50;10.60;;;5.07;;
49514;SDS011;35415;47.870;16.058;2023-05-20T15:41:22;6.72;;;4.72;;
49514;SDS011;35415;47.870;16.058;2023-05-20T15:43:50;6.47;;;4.93;;
49514;SDS011;35415;47.870;16.058;2023-05-20T15:46:18;7.38;;;5.13;;
49514;SDS011;35415;47.870;16.058;2023-05-20T15:48:45;6.90;;;4.80;;
49514;SDS011;35415;47.870;16.058;2023-05-20T15:51:13;7.18;;;4.55;;
49514;SDS011;35415;47.870;16.058;2023-05-20T15:53:42;5.57;;;4.90;;
49514;SDS011;35415;47.870;16.058;2023-05-20T15:56:09;9.77;;;5.38;;
49514;SDS011;35415;47.870;16.058;2023-05-20T15:58:42;9.20;;;5.22;;
49514;SDS011;35415;47.870;16.058;2023-05-20T16:01:10;8.18;;;5.47;;
49514;SDS011;35415;47.870;16.058;2023-05-20T16:03:38;11.88;;;5.93;;
49514;SDS011;35415;47.870;16.058;2023-05-20T16:06:05;7.82;;;4.65;;
49514;SDS011;35415;47.870;16.058;2023-05-20T16:08:35;8.02;;;5.22;;
49514;SDS011;35415;47.870;16.058;2023-05-20T16:11:02;7.03;;;5.43;;
49514;SDS011;35415;47.870;16.058;2023-05-20T16:13:30;11.20;;;5.80;;
49514;SDS011;35415;47.870;16.058;2023-05-20T16:15:59;8.05;;;5.57;;
49514;SDS011;35415;47.870;16.058;2023-05-20T16:18:26;7.00;;;5.05;;
49514;SDS011;35415;47.870;16.058;2023-05-20T16:20:54;6.20;;;5.10;;
49514;SDS011;35415;47.870;16.058;2023-05-20T16:23:22;6.97;;;5.40;;
49514;SDS011;35415;47.870;16.058;2023-05-20T16:25:50;15.50;;;5.93;;
49514;SDS011;35415;47.870;16.058;2023-05-20T16:28:19;12.18;;;5.45;;
49514;SDS011;35415;47.870;16.058;2023-05-20T16:30:46;7.57;;;5.80;;
49514;SDS011;35415;47.870;16.058;2023-05-20T16:33:15;11.25;;;6.57;;
49514;SDS011;35415;47.870;16.058;2023-05-20T16:35:44;6.80;;;4.97;;
49514;SDS011;35415;47.870;16.058;2023-05-20T16:38:13;10.98;;;6.00;;
49514;SDS011;35415;47.870;16.058;2023-05-20T16:40:40;8.38;;;6.05;;
49514;SDS011;35415;47.870;16.058;2023-05-20T16:43:08;8.05;;;5.65;;
49514;SDS011;35415;47.870;16.058;2023-05-20T16:45:36;8.00;;;5.50;;
49514;SDS011;35415;47.870;16.058;2023-05-20T16:48:04;6.60;;;5.05;;
49514;SDS011;35415;47.870;16.058;2023-05-20T16:50:34;8.13;;;5.35;;
49514;SDS011;35415;47.870;16.058;2023-05-20T16:53:01;6.30;;;5.70;;
49514;SDS011;35415;47.870;16.058;2023-05-20T16:55:28;9.50;;;5.40;;
49514;SDS011;35415;47.870;16.058;2023-05-20T16:57:56;9.07;;;4.60;;
49514;SDS011;35415;47.870;16.058;2023-05-20T17:00:27;6.22;;;4.65;;
49514;SDS011;35415;47.870;16.058;2023-05-20T17:02:54;5.05;;;4.55;;
49514;SDS011;35415;47.870;16.058;2023-05-20T17:05:21;5.38;;;4.38;;
49514;SDS011;35415;47.870;16.058;2023-05-20T17:07:51;6.25;;;5.10;;
49514;SDS011;35415;47.870;16.058;2023-05-20T17:10:23;8.18;;;4.80;;
49514;SDS011;35415;47.870;16.058;2023-05-20T17:12:53;7.13;;;5.05;;
49514;SDS011;35415;47.870;16.058;2023-05-20T17:15:22;10.07;;;5.15;;
49514;SDS011;35415;47.870;16.058;2023-05-20T17:17:50;5.80;;;5.00;;
49514;SDS011;35415;47.870;16.058;2023-05-20T17:20:18;7.13;;;5.07;;
49514;SDS011;35415;47.870;16.058;2023-05-20T17:22:45;8.02;;;6.75;;
49514;SDS011;35415;47.870;16.058;2023-05-20T17:25:14;8.90;;;5.07;;
49514;SDS011;35415;47.870;16.058;2023-05-20T17:27:42;7.20;;;4.88;;
49514;SDS011;35415;47.870;16.058;2023-05-20T17:30:10;5.93;;;4.63;;
49514;SDS011;35415;47.870;16.058;2023-05-20T17:32:37;6.97;;;5.28;;
49514;SDS011;35415;47.870;16.058;2023-05-20T17:35:05;6.78;;;5.30;;
49514;SDS011;35415;47.870;16.058;2023-05-20T17:37:33;7.18;;;4.80;;
49514;SDS011;35415;47.870;16.058;2023-05-20T17:40:01;6.35;;;5.03;;
49514;SDS011;35415;47.870;16.058;2023-05-20T17:42:32;5.68;;;4.63;;
49514;SDS011;35415;47.870;16.058;2023-05-20T17:45:00;7.75;;;5.53;;
49514;SDS011;35415;47.870;16.058;2023-05-20T17:47:28;6.13;;;5.53;;
49514;SDS011;35415;47.870;16.058;2023-05-20T17:49:56;7.00;;;5.93;;
49514;SDS011;35415;47.870;16.058;2023-05-20T17:52:25;9.60;;;5.82;;
49514;SDS011;35415;47.870;16.058;2023-05-20T17:54:52;8.98;;;4.95;;
49514;SDS011;35415;47.870;16.058;2023-05-20T17:57:19;5.75;;;4.80;;
49514;SDS011;35415;47.870;16.058;2023-05-20T17:59:48;11.30;;;4.97;;
49514;SDS011;35415;47.870;16.058;2023-05-20T18:02:18;6.22;;;4.78;;
49514;SDS011;35415;47.870;16.058;2023-05-20T18:04:46;6.80;;;5.00;;
49514;SDS011;35415;47.870;16.058;2023-05-20T18:07:13;7.00;;;5.30;;
49514;SDS011;35415;47.870;16.058;2023-05-20T18:09:41;7.18;;;5.25;;
49514;SDS011;35415;47.870;16.058;2023-05-20T18:12:09;6.55;;;5.22;;
49514;SDS011;35415;47.870;16.058;2023-05-20T18:14:36;6.95;;;5.15;;
49514;SDS011;35415;47.870;16.058;2023-05-20T18:17:05;7.40;;;5.25;;
49514;SDS011;35415;47.870;16.058;2023-05-20T18:19:33;6.22;;;5.40;;
49514;SDS011;35415;47.870;16.058;2023-05-20T18:22:00;8.73;;;5.07;;
49514;SDS011;35415;47.870;16.058;2023-05-20T18:24:31;10.15;;;5.90;;
49514;SDS011;35415;47.870;16.058;2023-05-20T18:26:58;7.90;;;5.70;;
49514;SDS011;35415;47.870;16.058;2023-05-20T18:29:27;7.78;;;5.72;;
49514;SDS011;35415;47.870;16.058;2023-05-20T18:31:55;7.57;;;5.68;;
49514;SDS011;35415;47.870;16.058;2023-05-20T18:34:24;9.32;;;5.65;;
49514;SDS011;35415;47.870;16.058;2023-05-20T18:36:53;7.50;;;5.93;;
49514;SDS011;35415;47.870;16.058;2023-05-20T18:39:20;8.02;;;5.78;;
49514;SDS011;35415;47.870;16.058;2023-05-20T18:41:48;11.73;;;6.97;;
49514;SDS011;35415;47.870;16.058;2023-05-20T18:44:18;7.05;;;5.30;;
49514;SDS011;35415;47.870;16.058;2023-05-20T18:46:45;10.30;;;6.72;;
49514;SDS011;35415;47.870;16.058;2023-05-20T18:49:13;8.35;;;6.20;;
49514;SDS011;35415;47.870;16.058;2023-05-20T18:51:42;8.73;;;6.20;;
49514;SDS011;35415;47.870;16.058;2023-05-20T18:54:10;8.40;;;6.05;;
49514;SDS011;35415;47.870;16.058;2023-05-20T18:56:37;10.35;;;6.82;;
49514;SDS011;35415;47.870;16.058;2023-05-20T18:59:05;8.55;;;6.10;;
49514;SDS011;35415;47.870;16.058;2023-05-20T19:01:33;7.15;;;6.00;;
49514;SDS011;35415;47.870;16.058;2023-05-20T19:04:01;7.18;;;5.43;;
49514;SDS011;35415;47.870;16.058;2023-05-20T19:06:28;7.78;;;6.22;;
49514;SDS011;35415;47.870;16.058;2023-05-20T19:08:57;8.23;;;6.50;;
49514;SDS011;35415;47.870;16.058;2023-05-20T19:11:25;10.60;;;6.40;;
49514;SDS011;35415;47.870;16.058;2023-05-20T19:13:53;8.52;;;6.07;;
49514;SDS011;35415;47.870;16.058;2023-05-20T19:16:20;8.43;;;6.43;;
49514;SDS011;35415;47.870;16.058;2023-05-20T19:18:47;9.18;;;6.47;;
49514;SDS011;35415;47.870;16.058;2023-05-20T19:21:15;9.32;;;7.00;;
49514;SDS011;35415;47.870;16.058;2023-05-20T19:23:42;11.05;;;6.40;;
49514;SDS011;35415;47.870;16.058;2023-05-20T19:26:12;7.97;;;6.00;;
49514;SDS011;35415;47.870;16.058;2023-05-20T19:28:40;10.63;;;6.80;;
49514;SDS011;35415;47.870;16.058;2023-05-20T19:31:07;14.38;;;7.80;;
49514;SDS011;35415;47.870;16.058;2023-05-20T19:33:34;11.07;;;8.13;;
49514;SDS011;35415;47.870;16.058;2023-05-20T19:36:14;13.10;;;8.02;;
49514;SDS011;35415;47.870;16.058;2023-05-20T19:38:42;9.65;;;7.43;;
49514;SDS011;35415;47.870;16.058;2023-05-20T19:41:12;9.77;;;7.28;;
49514;SDS011;35415;47.870;16.058;2023-05-20T19:43:40;10.73;;;7.28;;
49514;SDS011;35415;47.870;16.058;2023-05-20T19:46:08;9.55;;;7.15;;
49514;SDS011;35415;47.870;16.058;2023-05-20T19:48:38;12.65;;;7.50;;
49514;SDS011;35415;47.870;16.058;2023-05-20T19:51:06;10.23;;;7.43;;
49514;SDS011;35415;47.870;16.058;2023-05-20T19:53:34;10.13;;;7.20;;
49514;SDS011;35415;47.870;16.058;2023-05-20T19:56:06;10.38;;;6.90;;
49514;SDS011;35415;47.870;16.058;2023-05-20T19:58:35;12.20;;;7.45;;
49514;SDS011;35415;47.870;16.058;2023-05-20T20:01:02;11.98;;;7.75;;
49514;SDS011;35415;47.870;16.058;2023-05-20T20:03:31;11.07;;;6.95;;
49514;SDS011;35415;47.870;16.058;2023-05-20T20:05:59;8.50;;;6.70;;
49514;SDS011;35415;47.870;16.058;2023-05-20T20:08:28;11.20;;;7.07;;
49514;SDS011;35415;47.870;16.058;2023-05-20T20:10:55;8.95;;;6.80;;
49514;SDS011;35415;47.870;16.058;2023-05-20T20:13:23;9.60;;;7.15;;
49514;SDS011;35415;47.870;16.058;2023-05-20T20:15:52;12.00;;;7.25;;
49514;SDS011;35415;47.870;16.058;2023-05-20T20:18:20;9.65;;;6.93;;
49514;SDS011;35415;47.870;16.058;2023-05-20T20:20:47;9.88;;;6.55;;
49514;SDS011;35415;47.870;16.058;2023-05-20T20:23:14;14.57;;;7.63;;
49514;SDS011;35415;47.870;16.058;2023-05-20T20:25:43;11.30;;;7.57;;
49514;SDS011;35415;47.870;16.058;2023-05-20T20:28:12;12.13;;;7.78;;
49514;SDS011;35415;47.870;16.058;2023-05-20T20:30:40;13.32;;;7.78;;